createdAt,value
2022-07-31T00:01:49.563Z,987.5
2022-07-31T00:03:51.446Z,987.6
2022-07-31T00:05:52.452Z,987.6
2022-07-31T00:07:53.380Z,987.5
2022-07-31T00:09:54.907Z,987.5
2022-07-31T00:11:56.701Z,987.6
2022-07-31T00:13:58.694Z,987.5
2022-07-31T00:15:59.630Z,987.5
2022-07-31T00:18:01.182Z,987.5
2022-07-31T00:20:02.724Z,987.4
2022-07-31T00:22:04.260Z,987.4
2022-07-31T00:24:05.342Z,987.5
2022-07-31T00:28:07.324Z,987.5
2022-07-31T00:30:08.557Z,987.4
2022-07-31T00:32:09.846Z,987.4
2022-07-31T00:34:11.002Z,987.3
2022-07-31T00:36:11.920Z,987.3
2022-07-31T00:38:26.541Z,987.4
2022-07-31T00:40:14.985Z,987.4
2022-07-31T00:42:16.364Z,987.4
2022-07-31T00:44:17.257Z,987.3
2022-07-31T00:46:18.590Z,987.3
2022-07-31T00:48:19.634Z,987.4
2022-07-31T00:50:21.195Z,987.4
2022-07-31T00:54:24.238Z,987.3
2022-07-31T00:56:25.981Z,987.3
2022-07-31T00:58:27.359Z,987.3
2022-07-31T01:00:28.649Z,987.4
2022-07-31T01:02:30.018Z,987.4
2022-07-31T01:04:31.479Z,987.5
2022-07-31T01:06:32.929Z,987.4
2022-07-31T01:08:34.455Z,987.4
2022-07-31T01:10:36.136Z,987.4
2022-07-31T01:12:37.741Z,987.3
2022-07-31T01:14:38.872Z,987.3
2022-07-31T01:16:40.020Z,987.3
2022-07-31T01:18:41.499Z,987.3
2022-07-31T01:20:43.215Z,987.3
2022-07-31T01:22:44.693Z,987.4
2022-07-31T01:24:46.413Z,987.3
2022-07-31T01:26:47.684Z,987.3
2022-07-31T01:28:48.981Z,987.4
2022-07-31T01:30:53.015Z,987.3
2022-07-31T01:32:51.540Z,987.3
2022-07-31T01:34:53.247Z,987.3
2022-07-31T01:36:54.469Z,987.3
2022-07-31T01:38:55.795Z,987.3
2022-07-31T01:40:57.525Z,987.4
2022-07-31T01:42:59.414Z,987.4
2022-07-31T01:47:02.976Z,987.3
2022-07-31T01:49:04.430Z,987.3
2022-07-31T01:51:05.484Z,987.3
2022-07-31T01:53:07.084Z,987.3
2022-07-31T01:55:08.781Z,987.2
2022-07-31T01:57:09.831Z,987.2
2022-07-31T01:59:15.616Z,987.2
2022-07-31T02:01:12.912Z,987.2
2022-07-31T02:03:13.857Z,987.3
2022-07-31T02:05:15.249Z,987.2
2022-07-31T02:07:16.679Z,987.2
2022-07-31T02:09:17.946Z,987.3
2022-07-31T02:11:18.908Z,987.2
2022-07-31T02:13:20.334Z,987.2
2022-07-31T02:15:21.588Z,987.3
2022-07-31T02:17:22.920Z,987.2
2022-07-31T02:19:24.380Z,987.3
2022-07-31T02:21:25.502Z,987.2
2022-07-31T02:23:27.058Z,987.1
2022-07-31T02:25:28.518Z,987.2
2022-07-31T02:27:54.507Z,987.1
2022-07-31T02:29:31.382Z,987.1
2022-07-31T02:31:33.284Z,987.1
2022-07-31T02:35:35.404Z,987.1
2022-07-31T02:37:36.751Z,987
2022-07-31T02:39:38.324Z,987.1
2022-07-31T02:41:39.379Z,987.1
2022-07-31T02:43:40.976Z,987.1
2022-07-31T02:45:41.982Z,987.1
2022-07-31T02:47:43.328Z,987
2022-07-31T02:51:46.148Z,987.1
2022-07-31T02:53:47.263Z,987.1
2022-07-31T02:55:48.531Z,987.1
2022-07-31T02:57:50.460Z,987.1
2022-07-31T02:59:52.299Z,987.1
2022-07-31T03:01:53.780Z,987.1
2022-07-31T03:03:55.058Z,987
2022-07-31T03:05:56.435Z,987
2022-07-31T03:07:57.964Z,987
2022-07-31T03:09:59.782Z,987
2022-07-31T03:12:01.727Z,986.9
2022-07-31T03:14:03.182Z,986.9
2022-07-31T03:16:04.246Z,986.9
2022-07-31T03:18:11.149Z,986.9
2022-07-31T03:20:06.847Z,986.9
2022-07-31T03:22:11.163Z,986.9
2022-07-31T03:24:10.337Z,986.9
2022-07-31T03:26:12.081Z,986.9
2022-07-31T03:28:13.013Z,986.9
2022-07-31T03:30:14.567Z,986.9
2022-07-31T03:32:15.527Z,986.9
2022-07-31T03:34:17.104Z,986.9
2022-07-31T03:36:18.533Z,986.9
2022-07-31T03:38:39.612Z,986.9
2022-07-31T03:40:21.957Z,987
2022-07-31T03:42:23.741Z,986.9
2022-07-31T03:44:25.475Z,986.9
2022-07-31T03:46:26.486Z,986.9
2022-07-31T03:48:27.968Z,986.9
2022-07-31T03:50:29.051Z,986.9
2022-07-31T03:52:30.154Z,987
2022-07-31T03:54:31.310Z,987
2022-07-31T03:56:32.878Z,986.9
2022-07-31T04:00:35.931Z,987
2022-07-31T04:02:37.039Z,987
2022-07-31T04:04:38.822Z,987
2022-07-31T04:06:39.902Z,986.9
2022-07-31T04:10:42.860Z,986.9
2022-07-31T04:12:44.270Z,986.9
2022-07-31T04:14:45.326Z,987
2022-07-31T04:16:46.286Z,986.9
2022-07-31T04:18:50.675Z,987
2022-07-31T04:20:49.812Z,986.9
2022-07-31T04:22:50.915Z,987
2022-07-31T04:24:52.008Z,987
2022-07-31T04:26:53.330Z,987.1
2022-07-31T04:27:47.857Z,987
2022-07-31T04:29:47.687Z,987.1
2022-07-31T04:31:49.083Z,987
2022-07-31T04:33:54.641Z,987
2022-07-31T04:35:52.118Z,987
2022-07-31T04:37:53.187Z,987
2022-07-31T04:39:54.309Z,987.2
2022-07-31T04:41:55.224Z,987.1
2022-07-31T04:43:56.983Z,987.1
2022-07-31T04:45:58.192Z,987.1
2022-07-31T04:47:59.249Z,987.1
2022-07-31T04:50:01.113Z,987.1
2022-07-31T04:52:02.840Z,987.1
2022-07-31T04:54:04.188Z,987
2022-07-31T04:56:05.228Z,987.1
2022-07-31T04:58:06.427Z,987.2
2022-07-31T05:00:07.365Z,987.2
2022-07-31T05:02:09.269Z,987.1
2022-07-31T05:04:10.331Z,987.1
2022-07-31T05:06:11.419Z,987.1
2022-07-31T05:08:13.131Z,987.1
2022-07-31T05:10:14.239Z,987.1
2022-07-31T05:12:16.064Z,987.2
2022-07-31T05:14:17.710Z,987.1
2022-07-31T05:16:19.007Z,987.2
2022-07-31T05:18:20.426Z,987.1
2022-07-31T05:20:21.682Z,987.1
2022-07-31T05:22:23.095Z,987.1
2022-07-31T05:24:32.838Z,987.2
2022-07-31T05:26:25.476Z,987.2
2022-07-31T05:28:29.883Z,987.1
2022-07-31T05:32:29.748Z,987.2
2022-07-31T05:34:30.953Z,987.1
2022-07-31T05:36:32.466Z,987.2
2022-07-31T05:38:33.826Z,987.2
2022-07-31T05:40:35.208Z,987.2
2022-07-31T05:42:36.394Z,987.2
2022-07-31T05:44:37.792Z,987.1
2022-07-31T05:46:38.794Z,987.2
2022-07-31T05:48:40.583Z,987.1
2022-07-31T05:50:42.092Z,987.3
2022-07-31T05:52:43.063Z,987.1
2022-07-31T05:54:44.344Z,987.2
2022-07-31T05:56:45.421Z,987.1
2022-07-31T05:58:48.492Z,987.1
2022-07-31T06:00:48.556Z,987.1
2022-07-31T06:02:50.277Z,987.1
2022-07-31T06:04:52.046Z,987.1
2022-07-31T06:06:53.591Z,987.1
2022-07-31T06:08:54.482Z,987.2
2022-07-31T06:10:55.865Z,987.1
2022-07-31T06:12:56.845Z,987.1
2022-07-31T06:16:58.742Z,987.1
2022-07-31T06:18:59.883Z,987
2022-07-31T06:21:01.328Z,987.1
2022-07-31T06:23:02.598Z,987.1
2022-07-31T06:25:04.002Z,987.2
2022-07-31T06:27:04.967Z,987.1
2022-07-31T06:29:06.409Z,987.2
2022-07-31T06:31:07.195Z,987.1
2022-07-31T06:35:17.193Z,987.3
2022-07-31T06:37:10.615Z,987.2
2022-07-31T06:39:12.326Z,987.2
2022-07-31T06:41:13.683Z,987.2
2022-07-31T06:43:14.553Z,987.1
2022-07-31T06:45:25.150Z,987.2
2022-07-31T06:47:16.669Z,987.2
2022-07-31T06:49:17.608Z,987.2
2022-07-31T06:51:31.112Z,987.2
2022-07-31T06:53:20.537Z,987.2
2022-07-31T06:55:22.314Z,987.2
2022-07-31T06:57:23.793Z,987.1
2022-07-31T07:01:26.205Z,987.2
2022-07-31T07:03:27.644Z,987.1
2022-07-31T07:05:28.735Z,987.2
2022-07-31T07:07:32.030Z,987.1
2022-07-31T07:11:32.344Z,987.2
2022-07-31T07:13:45.465Z,987.2
2022-07-31T07:15:35.722Z,987.2
2022-07-31T07:17:36.482Z,987.2
2022-07-31T07:21:38.552Z,987.2
2022-07-31T07:23:39.498Z,987.2
2022-07-31T07:25:40.840Z,987.2
2022-07-31T07:27:42.474Z,987.2
2022-07-31T07:29:43.550Z,987.2
2022-07-31T07:31:44.299Z,987.2
2022-07-31T07:33:46.061Z,987.2
2022-07-31T07:35:46.919Z,987.2
2022-07-31T07:37:48.505Z,987.2
2022-07-31T07:39:49.954Z,987.2
2022-07-31T07:41:51.479Z,987.2
2022-07-31T07:43:53.175Z,987.2
2022-07-31T07:45:53.857Z,987.2
2022-07-31T07:48:06.938Z,987.1
2022-07-31T07:49:56.269Z,987.2
2022-07-31T07:51:58.643Z,987.1
2022-07-31T07:53:58.189Z,987.1
2022-07-31T07:55:59.124Z,987.1
2022-07-31T08:00:00.709Z,987.1
2022-07-31T08:02:02.331Z,987.1
2022-07-31T08:04:03.012Z,987.1
2022-07-31T08:06:04.055Z,987.1
2022-07-31T08:08:05.141Z,987.1
2022-07-31T08:10:06.156Z,987.1
2022-07-31T08:12:07.517Z,987.2
2022-07-31T08:14:08.561Z,987.2
2022-07-31T08:16:10.278Z,987.1
2022-07-31T08:18:11.306Z,987.2
2022-07-31T08:20:12.171Z,987.1
2022-07-31T08:22:13.213Z,987.1
2022-07-31T08:24:14.047Z,987.1
2022-07-31T08:26:14.907Z,987.1
2022-07-31T08:28:19.413Z,987.1
2022-07-31T08:30:17.644Z,987.1
2022-07-31T08:32:18.743Z,987.1
2022-07-31T08:34:31.178Z,987
2022-07-31T08:36:21.682Z,987.1
2022-07-31T08:38:23.006Z,987.1
2022-07-31T08:40:24.495Z,987.1
2022-07-31T08:42:25.919Z,987
2022-07-31T08:44:31.086Z,987
2022-07-31T08:46:28.392Z,987
2022-07-31T08:48:29.402Z,987
2022-07-31T08:50:30.438Z,986.9
2022-07-31T08:52:31.273Z,987
2022-07-31T08:54:33.025Z,986.9
2022-07-31T08:56:33.821Z,986.9
2022-07-31T08:58:38.858Z,986.9
2022-07-31T09:00:35.959Z,987
2022-07-31T09:02:37.703Z,986.9
2022-07-31T09:04:38.606Z,986.9
2022-07-31T09:06:39.781Z,986.9
2022-07-31T09:08:40.782Z,986.8
2022-07-31T09:10:45.175Z,986.8
2022-07-31T09:12:43.140Z,986.8
2022-07-31T09:14:44.162Z,986.7
2022-07-31T09:16:45.324Z,986.7
2022-07-31T09:18:46.157Z,986.7
2022-07-31T09:20:47.600Z,986.7
2022-07-31T09:22:48.651Z,986.7
2022-07-31T09:24:50.298Z,986.7
2022-07-31T09:26:51.442Z,986.7
2022-07-31T09:28:52.616Z,986.7
2022-07-31T09:30:55.981Z,986.7
2022-07-31T09:32:55.129Z,986.6
2022-07-31T09:34:56.157Z,986.6
2022-07-31T09:36:57.821Z,986.7
2022-07-31T09:38:59.494Z,986.7
2022-07-31T09:41:00.556Z,986.8
2022-07-31T09:43:03.010Z,986.7
2022-07-31T09:45:02.490Z,986.7
2022-07-31T09:47:04.093Z,986.7
2022-07-31T09:49:05.162Z,986.7
2022-07-31T09:51:06.502Z,986.7
2022-07-31T09:53:07.965Z,986.6
2022-07-31T09:55:14.363Z,986.6
2022-07-31T09:57:11.151Z,986.6
2022-07-31T10:01:13.000Z,986.6
2022-07-31T10:03:14.657Z,986.6
2022-07-31T10:05:15.800Z,986.5
2022-07-31T10:07:31.473Z,986.4
2022-07-31T10:09:18.142Z,986.5
2022-07-31T10:11:19.060Z,986.5
2022-07-31T10:13:20.775Z,986.5
2022-07-31T10:15:22.172Z,986.4
2022-07-31T10:17:23.829Z,986.5
2022-07-31T10:19:24.849Z,986.4
2022-07-31T10:21:26.142Z,986.5
2022-07-31T10:23:27.730Z,986.5
2022-07-31T10:25:29.188Z,986.4
2022-07-31T10:27:30.826Z,986.4
2022-07-31T10:29:33.155Z,986.4
2022-07-31T10:31:33.947Z,986.4
2022-07-31T10:33:44.344Z,986.3
2022-07-31T10:35:36.026Z,986.3
2022-07-31T10:37:37.425Z,986.3
2022-07-31T10:39:38.626Z,986.2
2022-07-31T10:41:40.138Z,986.2
2022-07-31T10:43:41.848Z,986.3
2022-07-31T10:45:42.630Z,986.1
2022-07-31T10:47:48.017Z,986.2
2022-07-31T10:49:46.020Z,986.1
2022-07-31T10:51:47.696Z,986.1
2022-07-31T10:55:50.299Z,986.1
2022-07-31T10:57:55.541Z,986
2022-07-31T10:59:52.160Z,985.8
2022-07-31T11:01:53.667Z,985.8
2022-07-31T11:03:54.755Z,985.9
2022-07-31T11:06:00.750Z,985.8
2022-07-31T11:07:57.597Z,985.9
2022-07-31T11:09:59.282Z,985.9
2022-07-31T11:12:00.439Z,985.8
2022-07-31T11:12:44.090Z,985.8
2022-07-31T11:16:46.496Z,985.9
2022-07-31T11:18:47.886Z,985.9
2022-07-31T11:20:48.793Z,986
2022-07-31T11:22:49.559Z,985.9
2022-07-31T11:24:51.284Z,985.9
2022-07-31T11:26:52.348Z,985.9
2022-07-31T11:28:53.698Z,986
2022-07-31T11:30:54.466Z,985.8
2022-07-31T11:32:55.907Z,985.8
2022-07-31T11:34:57.373Z,985.7
2022-07-31T11:36:58.962Z,985.7
2022-07-31T11:38:59.805Z,985.8
2022-07-31T11:43:25.083Z,985.7
2022-07-31T11:45:08.568Z,985.7
2022-07-31T11:47:05.202Z,985.6
2022-07-31T11:49:06.351Z,985.6
2022-07-31T11:51:07.158Z,985.6
2022-07-31T11:53:08.493Z,985.6
2022-07-31T11:55:10.006Z,985.4
2022-07-31T11:57:10.730Z,985.5
2022-07-31T11:59:14.552Z,985.5
2022-07-31T12:01:13.169Z,985.4
2022-07-31T12:03:14.001Z,985.4
2022-07-31T12:07:16.554Z,985.5
2022-07-31T12:10:01.716Z,985.5
2022-07-31T12:11:19.488Z,985.4
2022-07-31T12:15:22.493Z,985.5
2022-07-31T12:17:23.833Z,985.4
2022-07-31T12:19:25.326Z,985.4
2022-07-31T12:21:26.129Z,985.4
2022-07-31T12:23:38.379Z,985.4
2022-07-31T12:25:28.124Z,985.4
2022-07-31T12:27:29.371Z,985.5
2022-07-31T12:29:30.795Z,985.4
2022-07-31T12:31:31.654Z,985.4
2022-07-31T12:33:32.829Z,985.4
2022-07-31T12:35:37.104Z,985.3
2022-07-31T12:37:35.475Z,985.3
2022-07-31T12:39:47.907Z,985.3
2022-07-31T12:41:38.038Z,985.2
2022-07-31T12:43:38.817Z,985.3
2022-07-31T12:45:40.531Z,985.2
2022-07-31T12:47:41.669Z,985.3
2022-07-31T12:49:43.099Z,985.2
2022-07-31T12:51:46.963Z,985.2
2022-07-31T12:53:46.107Z,985.2
2022-07-31T12:55:47.166Z,985.2
2022-07-31T12:57:51.612Z,985.2
2022-07-31T12:59:50.093Z,985.2
2022-07-31T13:01:51.659Z,985.2
2022-07-31T13:03:52.934Z,985.1
2022-07-31T13:05:54.123Z,985.1
2022-07-31T13:07:55.437Z,985.1
2022-07-31T13:10:15.394Z,985
2022-07-31T13:11:58.231Z,985
2022-07-31T13:13:59.741Z,984.9
2022-07-31T13:16:01.110Z,984.9
2022-07-31T13:18:02.176Z,984.9
2022-07-31T13:20:03.578Z,984.8
2022-07-31T13:22:04.867Z,984.8
2022-07-31T13:24:05.863Z,984.7
2022-07-31T13:26:06.589Z,984.7
2022-07-31T13:28:08.154Z,984.7
2022-07-31T13:30:09.484Z,984.6
2022-07-31T13:32:10.296Z,984.6
2022-07-31T13:34:11.041Z,984.6
2022-07-31T13:36:12.538Z,984.5
2022-07-31T13:38:13.552Z,984.6
2022-07-31T13:40:15.163Z,984.4
2022-07-31T13:42:16.128Z,984.5
2022-07-31T13:44:17.212Z,984.5
2022-07-31T13:46:18.860Z,984.4
2022-07-31T13:48:19.809Z,984.5
2022-07-31T13:50:20.953Z,984.5
2022-07-31T13:52:22.643Z,984.4
2022-07-31T13:54:24.222Z,984.5
2022-07-31T13:56:34.169Z,984.5
2022-07-31T13:58:26.651Z,984.5
2022-07-31T14:00:28.303Z,984.5
2022-07-31T14:02:37.040Z,984.4
2022-07-31T14:04:31.314Z,984.3
2022-07-31T14:06:31.405Z,984.3
2022-07-31T14:08:33.565Z,984.3
2022-07-31T14:10:33.895Z,984.3
2022-07-31T14:12:35.376Z,984.2
2022-07-31T14:14:36.883Z,984.2
2022-07-31T14:16:38.131Z,984.1
2022-07-31T14:18:39.478Z,984.2
2022-07-31T14:20:40.732Z,984.2
2022-07-31T14:22:42.447Z,984.1
2022-07-31T14:24:49.867Z,984.2
2022-07-31T14:26:45.033Z,984.2
2022-07-31T14:28:45.766Z,984.2
2022-07-31T14:30:47.145Z,984.1
2022-07-31T14:32:48.799Z,984.1
2022-07-31T14:34:50.044Z,984.1
2022-07-31T14:36:50.860Z,984.1
2022-07-31T14:38:52.471Z,984
2022-07-31T14:40:53.347Z,984
2022-07-31T14:42:54.446Z,984
2022-07-31T14:44:55.513Z,984
2022-07-31T14:46:56.824Z,983.9
2022-07-31T14:48:58.344Z,984
2022-07-31T14:50:59.490Z,983.9
2022-07-31T14:53:00.535Z,983.9
2022-07-31T14:55:02.003Z,983.8
2022-07-31T14:57:03.227Z,983.8
2022-07-31T14:59:04.141Z,983.8
2022-07-31T15:01:05.740Z,983.8
2022-07-31T15:03:06.995Z,983.8
2022-07-31T15:06:37.175Z,983.7
2022-07-31T15:07:33.498Z,983.8
2022-07-31T15:09:11.406Z,983.7
2022-07-31T15:11:12.616Z,983.6
2022-07-31T15:13:13.760Z,983.7
2022-07-31T15:15:14.774Z,983.6
2022-07-31T15:17:16.385Z,983.6
2022-07-31T15:19:17.697Z,983.5
2022-07-31T15:21:18.945Z,983.7
2022-07-31T15:23:20.038Z,983.6
2022-07-31T15:25:21.549Z,983.6
2022-07-31T15:27:22.499Z,983.6
2022-07-31T15:29:23.450Z,983.6
2022-07-31T15:31:25.130Z,983.6
2022-07-31T15:33:26.379Z,983.6
2022-07-31T15:35:27.842Z,983.6
2022-07-31T15:37:29.093Z,983.5
2022-07-31T15:41:31.416Z,983.4
2022-07-31T15:43:33.088Z,983.4
2022-07-31T15:45:33.916Z,983.4
2022-07-31T15:47:35.160Z,983.4
2022-07-31T15:49:43.288Z,983.4
2022-07-31T15:51:38.120Z,983.4
2022-07-31T15:53:39.433Z,983.5
2022-07-31T15:55:40.384Z,983.4
2022-07-31T15:57:41.224Z,983.3
2022-07-31T15:59:42.836Z,983.4
2022-07-31T16:01:44.493Z,983.3
2022-07-31T16:03:50.919Z,983.4
2022-07-31T16:05:55.818Z,983.3
2022-07-31T16:08:28.434Z,983.3
2022-07-31T16:10:00.930Z,983.3
2022-07-31T16:12:05.198Z,983.3
2022-07-31T16:13:51.120Z,983.2
2022-07-31T16:15:52.456Z,983.2
2022-07-31T16:17:53.339Z,983.2
2022-07-31T16:19:54.170Z,983.2
2022-07-31T16:21:55.607Z,983.1
2022-07-31T16:23:57.187Z,983.1
2022-07-31T16:25:58.806Z,983.1
2022-07-31T16:30:02.573Z,983
2022-07-31T16:32:02.546Z,983
2022-07-31T16:34:03.818Z,983.1
2022-07-31T16:36:04.780Z,983
2022-07-31T16:38:06.274Z,983
2022-07-31T16:40:07.615Z,983
2022-07-31T16:42:09.132Z,983
2022-07-31T16:44:10.665Z,983
2022-07-31T16:46:11.645Z,983
2022-07-31T16:48:12.932Z,983
2022-07-31T16:50:14.421Z,983
2022-07-31T16:52:16.159Z,983
2022-07-31T16:54:17.817Z,982.9
2022-07-31T16:56:18.633Z,982.9
2022-07-31T17:00:20.588Z,982.9
2022-07-31T17:02:21.490Z,982.9
2022-07-31T17:04:22.593Z,982.9
2022-07-31T17:06:34.451Z,982.8
2022-07-31T17:08:24.689Z,982.9
2022-07-31T17:10:34.850Z,982.9
2022-07-31T17:12:27.134Z,982.8
2022-07-31T17:14:28.623Z,982.9
2022-07-31T17:16:29.484Z,982.9
2022-07-31T17:18:31.118Z,982.9
2022-07-31T17:20:31.950Z,982.9
2022-07-31T17:22:33.612Z,982.8
2022-07-31T17:24:35.298Z,982.8
2022-07-31T17:26:36.622Z,982.9
2022-07-31T17:28:38.170Z,982.8
2022-07-31T17:32:40.601Z,982.9
2022-07-31T17:34:41.845Z,982.8
2022-07-31T17:36:43.481Z,982.8
2022-07-31T17:38:44.715Z,982.8
2022-07-31T17:42:46.723Z,982.9
2022-07-31T17:44:50.874Z,982.8
2022-07-31T17:46:49.929Z,982.8
2022-07-31T17:48:51.651Z,982.8
2022-07-31T17:50:54.272Z,982.9
2022-07-31T17:52:54.342Z,982.9
2022-07-31T17:54:55.883Z,982.8
2022-07-31T17:56:56.706Z,982.9
2022-07-31T17:59:42.179Z,982.9
2022-07-31T18:01:43.390Z,982.9
2022-07-31T18:03:45.105Z,982.9
2022-07-31T18:05:46.138Z,982.8
2022-07-31T18:07:51.570Z,982.9
2022-07-31T18:09:48.809Z,982.9
2022-07-31T18:11:49.990Z,982.9
2022-07-31T18:14:03.232Z,982.9
2022-07-31T18:15:52.711Z,982.9
2022-07-31T18:17:53.962Z,983
2022-07-31T18:19:54.770Z,983
2022-07-31T18:21:56.327Z,983
2022-07-31T18:24:00.917Z,983
2022-07-31T18:25:59.268Z,983
2022-07-31T18:28:01.064Z,983
2022-07-31T18:30:02.380Z,983
2022-07-31T18:32:03.638Z,983
2022-07-31T18:34:04.535Z,983
2022-07-31T18:36:06.021Z,983
2022-07-31T18:38:06.811Z,983
2022-07-31T18:40:08.256Z,983
2022-07-31T18:42:09.694Z,982.9
2022-07-31T18:44:10.995Z,983
2022-07-31T18:46:12.828Z,982.9
2022-07-31T18:48:14.439Z,983
2022-07-31T18:50:57.755Z,983
2022-07-31T18:52:16.636Z,983
2022-07-31T18:54:17.992Z,983
2022-07-31T18:56:19.213Z,983
2022-07-31T18:58:20.381Z,983
2022-07-31T19:00:22.050Z,983
2022-07-31T19:02:23.105Z,983
2022-07-31T19:04:24.062Z,983
2022-07-31T19:08:26.429Z,983
2022-07-31T19:10:29.071Z,983
2022-07-31T19:12:29.187Z,983
2022-07-31T19:14:30.881Z,983
2022-07-31T19:18:33.910Z,983
2022-07-31T19:20:40.672Z,983
2022-07-31T19:22:36.621Z,983.1
2022-07-31T19:24:38.086Z,983.1
2022-07-31T19:26:39.289Z,983.2
2022-07-31T19:28:40.561Z,983.2
2022-07-31T19:30:44.080Z,983.2
2022-07-31T19:32:43.217Z,983.2
2022-07-31T19:34:47.893Z,983.3
2022-07-31T19:36:45.980Z,983.3
2022-07-31T19:38:47.669Z,983.3
2022-07-31T19:40:49.235Z,983.3
2022-07-31T19:42:50.695Z,983.4
2022-07-31T19:44:52.126Z,983.4
2022-07-31T19:46:53.259Z,983.4
2022-07-31T19:48:54.776Z,983.4
2022-07-31T19:50:56.389Z,983.5
2022-07-31T19:52:57.561Z,983.4
2022-07-31T19:54:59.138Z,983.5
2022-07-31T19:56:59.978Z,983.4
2022-07-31T19:59:01.632Z,983.4
2022-07-31T20:01:02.625Z,983.4
2022-07-31T20:03:04.091Z,983.4
2022-07-31T20:07:06.866Z,983.4
2022-07-31T20:09:08.268Z,983.4
2022-07-31T20:11:09.302Z,983.3
2022-07-31T20:13:10.532Z,983.5
2022-07-31T20:15:12.023Z,983.4
2022-07-31T20:17:13.233Z,983.5
2022-07-31T20:19:14.935Z,983.5
2022-07-31T20:21:16.681Z,983.5
2022-07-31T20:23:18.200Z,983.4
2022-07-31T20:25:20.233Z,983.4
2022-07-31T20:27:20.672Z,983.4
2022-07-31T20:29:22.053Z,983.5
2022-07-31T20:31:23.616Z,983.5
2022-07-31T20:33:25.405Z,983.4
2022-07-31T20:35:29.410Z,983.5
2022-07-31T20:37:27.836Z,983.5
2022-07-31T20:39:33.564Z,983.5
2022-07-31T20:41:30.549Z,983.5
2022-07-31T20:43:31.546Z,983.5
2022-07-31T20:45:33.189Z,983.5
2022-07-31T20:47:34.152Z,983.5
2022-07-31T20:49:36.083Z,983.5
2022-07-31T20:51:37.567Z,983.5
2022-07-31T20:53:38.550Z,983.5
2022-07-31T20:55:39.439Z,983.5
2022-07-31T20:57:40.414Z,983.5
2022-07-31T20:59:41.263Z,983.5
2022-07-31T21:01:42.983Z,983.5
2022-07-31T21:03:44.192Z,983.5
2022-07-31T21:05:45.656Z,983.5
2022-07-31T21:07:46.992Z,983.5
2022-07-31T21:09:48.295Z,983.5
2022-07-31T21:11:49.980Z,983.5
2022-07-31T21:13:51.288Z,983.5
2022-07-31T21:15:53.064Z,983.5
2022-07-31T21:17:54.613Z,983.5
2022-07-31T21:19:55.726Z,983.6
2022-07-31T21:21:56.616Z,983.5
2022-07-31T21:23:57.969Z,983.5
2022-07-31T21:25:59.118Z,983.5
2022-07-31T21:28:00.278Z,983.6
2022-07-31T21:32:03.705Z,983.6
2022-07-31T21:34:04.448Z,983.6
2022-07-31T21:36:05.840Z,983.5
2022-07-31T21:38:10.162Z,983.5
2022-07-31T21:42:10.275Z,983.5
2022-07-31T21:44:11.514Z,983.5
2022-07-31T21:46:12.914Z,983.5
2022-07-31T21:48:14.459Z,983.6
2022-07-31T21:50:16.093Z,983.5
2022-07-31T21:52:17.746Z,983.6
2022-07-31T21:54:18.816Z,983.6
2022-07-31T21:56:20.492Z,983.6
2022-07-31T21:58:21.947Z,983.7
2022-07-31T22:00:26.222Z,983.8
2022-07-31T22:02:24.871Z,983.7
2022-07-31T22:04:29.978Z,983.8
2022-07-31T22:06:28.319Z,983.8
2022-07-31T22:08:29.882Z,983.8
2022-07-31T22:10:31.564Z,983.8
2022-07-31T22:12:31.926Z,983.8
2022-07-31T22:14:33.368Z,983.8
2022-07-31T22:16:34.981Z,983.9
2022-07-31T22:18:36.218Z,983.9
2022-07-31T22:20:37.814Z,983.8
2022-07-31T22:22:38.685Z,983.8
2022-07-31T22:24:39.921Z,983.8
2022-07-31T22:26:41.150Z,983.9
2022-07-31T22:30:44.263Z,983.9
2022-07-31T22:32:47.601Z,983.9
2022-07-31T22:34:47.346Z,983.9
2022-07-31T22:36:48.290Z,984
2022-07-31T22:38:49.836Z,984
2022-07-31T22:40:51.034Z,984
2022-07-31T22:42:56.409Z,984
2022-07-31T22:44:53.898Z,984
2022-07-31T22:46:55.621Z,984
2022-07-31T22:48:56.736Z,984.1
2022-07-31T22:50:58.215Z,984.1
2022-07-31T22:52:59.944Z,984.1
2022-07-31T22:55:00.945Z,984.2
2022-07-31T22:57:02.486Z,984.1
2022-07-31T22:59:03.944Z,984.1
2022-07-31T23:01:05.090Z,984.2
2022-07-31T23:03:06.167Z,984.2
2022-07-31T23:05:07.591Z,984.2
2022-07-31T23:07:09.326Z,984.2
2022-07-31T23:09:11.052Z,984.2
2022-07-31T23:11:12.694Z,984.2
2022-07-31T23:13:13.191Z,984.4
2022-07-31T23:15:14.352Z,984.4
2022-07-31T23:17:22.524Z,984.4
2022-07-31T23:19:17.754Z,984.3
2022-07-31T23:21:19.113Z,984.3
2022-07-31T23:23:20.664Z,984.3
2022-07-31T23:25:22.403Z,984.3
2022-07-31T23:27:23.552Z,984.3
2022-07-31T23:29:24.772Z,984.3
2022-07-31T23:31:26.550Z,984.3
2022-07-31T23:33:28.049Z,984.4
2022-07-31T23:35:29.513Z,984.3
2022-07-31T23:37:30.580Z,984.4
2022-07-31T23:39:31.451Z,984.4
2022-07-31T23:41:32.554Z,984.4
2022-07-31T23:43:33.776Z,984.3
2022-07-31T23:45:35.391Z,984.4
2022-07-31T23:47:41.866Z,984.4
2022-07-31T23:49:38.191Z,984.4
2022-07-31T23:51:39.238Z,984.4
2022-07-31T23:55:42.603Z,984.4
2022-07-31T23:57:42.473Z,984.4
2022-07-31T23:59:44.340Z,984.4
